Time;durP1;ratioP1;P1;durP2;ratioP2;P2;SDS_P1;SDS_P2;PMS_P1;PMS_P2;Temp;Humidity;BMP_temperature;BMP_pressure;BME280_temperature;BME280_humidity;BME280_pressure;Samples;Min_cycle;Max_cycle;Signal;HPM_P1;HPM_P2
2022/04/15 00:02:11;;;;;;;11.43;6.05;;;8.90;97.50;;;;;;6034149;23;93120;-71
2022/04/15 00:04:38;;;;;;;8.07;5.75;;;9.00;97.40;;;;;;6011422;23;94039;-70
2022/04/15 00:07:06;;;;;;;7.60;6.18;;;9.10;97.30;;;;;;6036849;23;92336;-71
2022/04/15 00:09:35;;;;;;;7.63;5.85;;;9.20;97.10;;;;;;6036497;23;92092;-71
2022/04/15 00:12:07;;;;;;;8.32;6.25;;;9.20;97.00;;;;;;6037110;23;93214;-71
2022/04/15 00:14:37;;;;;;;8.85;5.90;;;9.30;96.90;;;;;;6037209;23;92973;-71
2022/04/15 00:17:04;;;;;;;7.68;5.85;;;9.30;96.90;;;;;;6035824;23;94705;-71
2022/04/15 00:19:31;;;;;;;7.63;6.13;;;9.40;96.70;;;;;;6036957;23;92395;-71
2022/04/15 00:21:58;;;;;;;6.93;5.72;;;9.40;96.70;;;;;;6036901;23;98672;-70
2022/04/15 00:24:25;;;;;;;7.93;5.72;;;9.50;96.80;;;;;;6034979;23;96004;-71
2022/04/15 00:26:53;;;;;;;7.50;5.72;;;9.60;96.70;;;;;;6035434;23;96000;-71
2022/04/15 00:29:20;;;;;;;8.13;6.05;;;9.60;96.50;;;;;;6035327;23;92533;-71
2022/04/15 00:31:47;;;;;;;7.97;5.50;;;9.70;96.50;;;;;;6035537;23;95725;-71
2022/04/15 00:34:13;;;;;;;6.65;5.55;;;9.80;96.40;;;;;;6037208;23;92869;-70
2022/04/15 00:36:40;;;;;;;9.50;6.63;;;9.70;96.30;;;;;;6035701;23;92409;-71
2022/04/15 00:39:08;;;;;;;8.50;6.10;;;9.80;96.30;;;;;;6035704;23;92483;-71
2022/04/15 00:41:34;;;;;;;13.65;6.03;;;9.80;96.30;;;;;;6032657;23;116604;-70
2022/04/15 00:44:01;;;;;;;8.77;6.10;;;9.90;96.30;;;;;;6036882;23;95279;-71
2022/04/15 00:46:28;;;;;;;10.73;6.05;;;9.80;96.20;;;;;;6036950;23;92477;-71
2022/04/15 00:48:55;;;;;;;9.80;5.53;;;9.90;96.30;;;;;;6037196;23;92754;-71
2022/04/15 00:51:28;;;;;;;7.50;6.45;;;9.90;96.20;;;;;;6036843;23;92411;-71
2022/04/15 00:53:57;;;;;;;10.10;6.20;;;9.90;96.30;;;;;;6035109;23;95398;-71
2022/04/15 00:56:29;;;;;;;12.65;6.32;;;9.90;96.30;;;;;;6037071;23;92725;-71
2022/04/15 00:58:59;;;;;;;10.48;6.20;;;10.00;96.30;;;;;;6036030;23;91759;-71
2022/04/15 01:01:26;;;;;;;9.32;7.07;;;10.00;96.10;;;;;;6035100;23;93209;-70
2022/04/15 01:03:55;;;;;;;8.32;6.55;;;10.10;96.20;;;;;;6036856;23;92321;-71
2022/04/15 01:06:24;;;;;;;11.15;6.35;;;10.10;96.10;;;;;;6033577;23;94899;-70
2022/04/15 01:08:55;;;;;;;9.68;6.10;;;10.10;96.00;;;;;;6035261;23;92354;-71
2022/04/15 01:11:24;;;;;;;10.95;6.78;;;10.10;96.00;;;;;;6035180;23;95737;-71
2022/04/15 01:13:52;;;;;;;10.75;6.32;;;10.10;96.20;;;;;;6036579;23;92938;-70
2022/04/15 01:16:20;;;;;;;11.18;6.50;;;10.10;96.30;;;;;;6036799;23;92331;-71
2022/04/15 01:18:47;;;;;;;9.68;6.70;;;10.20;96.20;;;;;;6036566;23;92393;-71
2022/04/15 01:21:16;;;;;;;11.50;6.78;;;10.20;96.10;;;;;;6035218;23;93165;-70
2022/04/15 01:23:43;;;;;;;10.75;7.03;;;10.20;96.10;;;;;;6036773;23;103217;-70
2022/04/15 01:26:10;;;;;;;9.20;5.80;;;10.20;96.00;;;;;;6034840;23;92470;-71
2022/04/15 01:28:37;;;;;;;9.80;6.15;;;10.20;96.10;;;;;;6034895;23;92468;-71
2022/04/15 01:31:04;;;;;;;8.18;5.90;;;10.20;96.10;;;;;;6033396;23;98111;-70
2022/04/15 01:33:31;;;;;;;10.32;6.95;;;10.20;96.20;;;;;;6034552;23;97827;-71
2022/04/15 01:35:58;;;;;;;8.77;6.05;;;10.20;96.10;;;;;;6036852;23;92414;-71
2022/04/15 01:38:25;;;;;;;6.22;5.63;;;10.30;96.30;;;;;;6011360;23;92357;-71
2022/04/15 01:40:52;;;;;;;6.85;5.72;;;10.30;96.20;;;;;;6035010;23;92995;-70
2022/04/15 01:43:19;;;;;;;7.65;5.53;;;10.30;96.20;;;;;;6035727;23;111286;-71
2022/04/15 01:45:46;;;;;;;8.27;5.50;;;10.20;96.20;;;;;;6035438;23;92369;-68
2022/04/15 01:48:13;;;;;;;7.22;5.85;;;10.30;96.20;;;;;;6035334;23;91657;-68
2022/04/15 01:50:40;;;;;;;9.63;5.88;;;10.30;96.30;;;;;;6034356;23;98323;-68
2022/04/15 01:53:07;;;;;;;9.35;5.75;;;10.30;96.20;;;;;;6034870;23;92868;-68
2022/04/15 01:55:35;;;;;;;8.65;5.38;;;10.30;96.20;;;;;;6035168;23;94791;-68
2022/04/15 01:58:02;;;;;;;5.63;4.90;;;10.30;96.30;;;;;;6035165;23;92433;-68
2022/04/15 02:00:29;;;;;;;10.40;5.65;;;10.20;96.40;;;;;;6035975;23;93098;-68
2022/04/15 02:02:56;;;;;;;9.45;5.35;;;10.20;96.60;;;;;;6034349;23;100373;-68
2022/04/15 02:05:22;;;;;;;6.03;5.30;;;10.10;96.70;;;;;;6036519;23;92387;-68
2022/04/15 02:07:49;;;;;;;9.02;5.47;;;10.10;96.80;;;;;;6034858;23;92503;-68
2022/04/15 02:10:16;;;;;;;7.07;4.95;;;10.00;97.00;;;;;;6034514;23;95882;-68
2022/04/15 02:12:43;;;;;;;8.27;4.75;;;10.10;97.00;;;;;;6034938;23;92999;-68
2022/04/15 02:15:10;;;;;;;7.18;4.70;;;10.10;96.90;;;;;;6035061;23;92370;-68
2022/04/15 02:17:37;;;;;;;5.80;4.75;;;10.00;96.90;;;;;;6034177;23;104099;-68
2022/04/15 02:20:05;;;;;;;8.40;4.95;;;10.10;96.70;;;;;;6032771;23;98556;-69
2022/04/15 02:22:32;;;;;;;7.40;5.32;;;10.00;96.60;;;;;;6010116;23;97788;-68
2022/04/15 02:25:00;;;;;;;7.43;4.60;;;10.10;96.70;;;;;;6037935;23;92320;-68
2022/04/15 02:27:27;;;;;;;8.70;4.68;;;10.10;96.60;;;;;;6066698;23;92377;-68
2022/04/15 02:29:54;;;;;;;5.00;4.50;;;10.20;96.50;;;;;;6066746;23;93195;-69
2022/04/15 02:32:23;;;;;;;6.13;4.40;;;10.20;96.60;;;;;;6065963;23;109619;-68
2022/04/15 02:34:51;;;;;;;7.88;4.93;;;10.20;96.50;;;;;;6066630;23;92306;-68
2022/04/15 02:37:17;;;;;;;6.65;5.07;;;10.20;96.40;;;;;;6041603;23;91729;-68
2022/04/15 02:39:44;;;;;;;6.20;5.47;;;10.20;96.30;;;;;;6066362;23;93106;-69
2022/04/15 02:42:11;;;;;;;7.93;5.28;;;10.20;96.40;;;;;;6066587;23;92933;-68
2022/04/15 02:44:38;;;;;;;8.45;5.13;;;10.20;96.40;;;;;;6039393;23;94779;-68
2022/04/15 02:47:07;;;;;;;6.63;4.90;;;10.20;96.20;;;;;;6066823;23;92295;-68
2022/04/15 02:49:34;;;;;;;6.38;5.78;;;10.20;96.20;;;;;;6066352;23;93076;-68
2022/04/15 02:52:01;;;;;;;10.07;5.60;;;10.30;96.30;;;;;;6040543;23;94038;-68
2022/04/15 02:54:28;;;;;;;9.07;5.82;;;10.30;96.10;;;;;;6066847;23;92315;-68
2022/04/15 02:56:55;;;;;;;10.23;5.70;;;10.30;96.10;;;;;;6041255;23;92376;-69
2022/04/15 02:59:22;;;;;;;10.75;6.03;;;10.30;96.20;;;;;;6066418;23;93272;-68
2022/04/15 03:01:49;;;;;;;8.50;4.90;;;10.30;96.10;;;;;;6066526;23;93071;-68
2022/04/15 03:04:16;;;;;;;10.18;5.40;;;10.40;96.10;;;;;;6066830;23;92320;-68
2022/04/15 03:06:44;;;;;;;6.82;5.05;;;10.40;96.00;;;;;;6066338;23;92388;-68
2022/04/15 03:09:11;;;;;;;5.38;4.85;;;10.40;96.00;;;;;;6064432;23;109021;-68
2022/04/15 03:11:38;;;;;;;7.18;4.88;;;10.30;95.80;;;;;;6016149;23;97815;-68
2022/04/15 03:14:05;;;;;;;6.05;4.25;;;10.30;95.90;;;;;;6066849;23;92464;-68
2022/04/15 03:16:34;;;;;;;7.35;4.50;;;10.20;95.80;;;;;;6040951;23;92401;-71
2022/04/15 03:19:01;;;;;;;5.15;4.28;;;10.20;95.90;;;;;;6040446;23;95764;-71
2022/04/15 03:21:28;;;;;;;7.18;4.72;;;10.10;95.90;;;;;;6066582;23;93059;-70
2022/04/15 03:23:55;;;;;;;8.75;5.25;;;10.20;96.00;;;;;;6040544;23;92485;-71
2022/04/15 03:26:22;;;;;;;9.13;5.40;;;10.20;95.70;;;;;;6040736;23;91747;-71
2022/04/15 03:28:49;;;;;;;5.80;4.35;;;10.20;95.90;;;;;;6040159;23;95639;-71
2022/04/15 03:31:16;;;;;;;10.05;5.70;;;10.20;95.60;;;;;;6066438;23;92856;-71
2022/04/15 03:33:44;;;;;;;8.15;5.35;;;10.20;95.70;;;;;;6039370;23;94896;-71
2022/04/15 03:36:11;;;;;;;10.70;5.15;;;10.20;95.70;;;;;;6064943;23;92389;-71
2022/04/15 03:38:38;;;;;;;6.43;5.40;;;10.30;95.80;;;;;;6066273;23;93284;-71
2022/04/15 03:41:05;;;;;;;9.50;6.53;;;10.20;95.80;;;;;;6066456;23;92800;-71
2022/04/15 03:43:33;;;;;;;12.02;6.90;;;10.30;95.90;;;;;;6040973;23;92502;-70
2022/04/15 03:46:00;;;;;;;11.23;7.72;;;10.20;96.20;;;;;;6066463;23;92767;-71
2022/04/15 03:48:27;;;;;;;12.18;8.63;;;10.10;96.40;;;;;;6040610;23;93386;-71
2022/04/15 03:50:54;;;;;;;9.50;7.97;;;10.10;96.60;;;;;;6041005;23;92873;-71
2022/04/15 03:53:21;;;;;;;11.75;8.88;;;10.00;96.70;;;;;;6066619;23;92374;-71
2022/04/15 03:55:49;;;;;;;10.13;7.95;;;10.00;96.90;;;;;;6040778;23;92467;-70
2022/04/15 03:58:16;;;;;;;11.45;7.63;;;10.00;96.90;;;;;;6064726;23;95783;-70
2022/04/15 04:00:44;;;;;;;11.02;7.97;;;10.00;96.80;;;;;;6040359;23;95281;-71
2022/04/15 04:03:12;;;;;;;11.25;7.60;;;10.00;96.90;;;;;;6066551;23;92328;-71
2022/04/15 04:05:40;;;;;;;13.77;9.35;;;10.00;96.90;;;;;;6066209;23;92391;-71
2022/04/15 04:08:07;;;;;;;10.05;9.00;;;9.90;97.00;;;;;;6066384;23;93182;-71
2022/04/15 04:10:34;;;;;;;10.63;9.48;;;10.00;97.00;;;;;;6065917;23;101155;-71
2022/04/15 04:13:02;;;;;;;11.00;7.85;;;10.00;97.00;;;;;;6064538;23;92424;-71
2022/04/15 04:15:31;;;;;;;11.35;7.68;;;9.90;96.90;;;;;;6041527;23;91731;-71
2022/04/15 04:17:58;;;;;;;13.48;8.55;;;9.90;96.80;;;;;;6065847;23;93292;-70
2022/04/15 04:20:25;;;;;;;8.80;7.45;;;9.90;96.80;;;;;;6040075;23;93115;-71
2022/04/15 04:22:52;;;;;;;9.13;7.50;;;9.90;96.60;;;;;;6014836;23;94738;-70
2022/04/15 04:25:19;;;;;;;8.18;6.68;;;9.90;96.60;;;;;;6066034;23;92423;-71
2022/04/15 04:27:47;;;;;;;7.65;6.13;;;9.80;96.20;;;;;;6040723;23;93320;-71
2022/04/15 04:30:15;;;;;;;7.57;5.28;;;9.70;96.10;;;;;;6040113;23;95410;-71
2022/04/15 04:32:49;;;;;;;7.93;7.05;;;9.50;96.00;;;;;;6066140;23;97269;-70
2022/04/15 04:35:18;;;;;;;7.30;6.57;;;9.50;96.30;;;;;;6016598;23;92405;-71
2022/04/15 04:37:46;;;;;;;8.95;6.97;;;9.50;96.40;;;;;;6065811;23;93296;-69
2022/04/15 04:40:14;;;;;;;6.78;6.05;;;9.50;96.40;;;;;;6066374;23;92859;-68
2022/04/15 04:42:41;;;;;;;8.23;7.43;;;9.60;96.30;;;;;;6040309;23;92375;-68
2022/04/15 04:45:10;;;;;;;8.05;6.00;;;9.60;96.20;;;;;;6066084;23;92781;-68
2022/04/15 04:47:42;;;;;;;10.10;6.75;;;9.60;96.20;;;;;;6064033;23;95604;-68
2022/04/15 04:50:10;;;;;;;7.88;6.28;;;9.60;96.20;;;;;;6039640;23;100326;-69
2022/04/15 04:52:38;;;;;;;4.85;4.45;;;9.60;96.20;;;;;;6066218;23;92444;-68
2022/04/15 04:55:06;;;;;;;6.28;5.40;;;9.50;95.90;;;;;;6040417;23;92383;-68
2022/04/15 04:57:33;;;;;;;8.02;5.45;;;9.60;95.80;;;;;;6066210;23;93312;-68
2022/04/15 05:00:01;;;;;;;7.03;6.38;;;9.60;95.80;;;;;;6065572;23;92963;-68
2022/04/15 05:02:28;;;;;;;8.32;6.97;;;9.60;95.80;;;;;;6066093;23;92348;-68
2022/04/15 05:04:54;;;;;;;7.63;6.05;;;9.60;95.80;;;;;;6040321;23;91683;-68
2022/04/15 05:07:21;;;;;;;7.93;6.57;;;9.60;95.70;;;;;;6040384;23;92410;-69
2022/04/15 05:09:48;;;;;;;6.65;5.63;;;9.70;95.80;;;;;;6065207;23;103103;-68
2022/04/15 05:12:15;;;;;;;8.00;5.90;;;9.60;95.60;;;;;;6064623;23;94772;-68
2022/04/15 05:14:42;;;;;;;6.78;5.78;;;9.50;95.60;;;;;;6040143;23;92834;-68
2022/04/15 05:17:09;;;;;;;8.80;6.25;;;9.50;95.80;;;;;;6065561;23;93023;-68
2022/04/15 05:19:41;;;;;;;6.00;5.40;;;9.40;95.90;;;;;;6065915;23;92939;-68
2022/04/15 05:22:09;;;;;;;5.32;4.78;;;9.40;95.90;;;;;;6039411;23;92804;-68
2022/04/15 05:24:37;;;;;;;6.32;5.75;;;9.40;95.90;;;;;;6066266;23;92387;-71
2022/04/15 05:27:05;;;;;;;5.88;5.38;;;9.40;96.00;;;;;;6065223;23;93195;-71
2022/04/15 05:29:32;;;;;;;8.05;5.82;;;9.40;95.80;;;;;;6016089;23;95428;-71
2022/04/15 05:32:00;;;;;;;6.10;5.30;;;9.40;95.90;;;;;;6065013;23;102187;-71
2022/04/15 05:34:27;;;;;;;8.25;6.18;;;9.40;96.00;;;;;;6016333;23;92498;-71
2022/04/15 05:36:54;;;;;;;6.55;5.93;;;9.40;95.90;;;;;;6038189;23;95665;-71
2022/04/15 05:39:21;;;;;;;7.20;5.40;;;9.40;95.90;;;;;;6039874;23;95288;-71
2022/04/15 05:41:48;;;;;;;7.22;6.60;;;9.30;96.00;;;;;;6039682;23;92409;-71
2022/04/15 05:44:16;;;;;;;9.35;6.38;;;9.40;96.10;;;;;;6039837;23;92315;-71
2022/04/15 05:46:43;;;;;;;7.15;6.43;;;9.30;96.30;;;;;;6040018;23;93031;-70
2022/04/15 05:49:14;;;;;;;7.15;4.95;;;9.30;96.40;;;;;;6039260;23;95580;-70
2022/04/15 05:51:42;;;;;;;7.20;6.10;;;9.20;96.40;;;;;;6040216;23;92375;-70
2022/04/15 05:54:09;;;;;;;8.07;6.47;;;9.20;96.60;;;;;;6065961;23;92032;-71
2022/04/15 05:56:37;;;;;;;8.30;6.20;;;9.20;96.60;;;;;;6039168;23;111910;-71
2022/04/15 05:59:04;;;;;;;8.60;6.75;;;9.20;96.60;;;;;;6040011;23;93309;-71
2022/04/15 06:01:32;;;;;;;7.53;6.70;;;9.20;96.70;;;;;;6065639;23;94754;-71
2022/04/15 06:03:59;;;;;;;6.97;6.38;;;9.20;96.90;;;;;;6066677;23;92428;-71
2022/04/15 06:06:26;;;;;;;6.80;6.20;;;9.20;96.90;;;;;;6066806;23;93106;-70
2022/04/15 06:08:53;;;;;;;6.55;5.68;;;9.20;96.80;;;;;;6066808;23;92964;-71
2022/04/15 06:11:21;;;;;;;5.72;5.13;;;9.20;96.90;;;;;;6067194;23;92325;-70
2022/04/15 06:13:49;;;;;;;6.70;5.78;;;9.20;96.60;;;;;;6066938;23;92436;-70
2022/04/15 06:16:17;;;;;;;7.47;6.60;;;9.20;96.70;;;;;;6066635;23;92793;-71
2022/04/15 06:18:44;;;;;;;7.85;6.68;;;9.30;96.80;;;;;;6065409;23;95385;-70
2022/04/15 06:21:25;;;;;;;8.18;7.03;;;9.30;96.70;;;;;;6066952;23;92451;-71
2022/04/15 06:23:53;;;;;;;8.50;6.75;;;9.30;96.60;;;;;;6040135;23;106630;-71
2022/04/15 06:26:20;;;;;;;11.32;7.78;;;9.40;96.70;;;;;;6064520;23;95444;-71
2022/04/15 06:28:47;;;;;;;9.65;7.65;;;9.50;96.70;;;;;;6066540;23;95642;-71
2022/04/15 06:31:14;;;;;;;12.70;7.88;;;9.60;96.60;;;;;;6040946;23;92427;-71
2022/04/15 06:33:41;;;;;;;8.52;6.82;;;9.70;96.50;;;;;;6066830;23;92454;-69
2022/04/15 06:36:08;;;;;;;8.18;6.63;;;9.70;96.10;;;;;;6016352;23;95717;-68
2022/04/15 06:38:35;;;;;;;8.75;7.72;;;9.80;96.20;;;;;;6017026;23;92977;-68
2022/04/15 06:41:02;;;;;;;10.57;7.63;;;9.80;96.00;;;;;;6041033;23;92470;-68
2022/04/15 06:43:29;;;;;;;9.65;7.47;;;9.80;96.00;;;;;;6066570;23;100746;-68
2022/04/15 06:45:56;;;;;;;9.27;7.38;;;9.80;96.00;;;;;;6066502;23;93253;-68
2022/04/15 06:48:23;;;;;;;11.85;8.15;;;9.80;96.00;;;;;;6066267;23;92860;-68
2022/04/15 06:50:50;;;;;;;11.52;7.18;;;9.70;96.00;;;;;;6065636;23;94724;-68
2022/04/15 06:53:17;;;;;;;11.25;7.75;;;9.80;96.20;;;;;;6064845;23;92305;-68
2022/04/15 06:55:44;;;;;;;10.32;7.60;;;9.80;96.10;;;;;;6066510;23;93107;-68
2022/04/15 06:58:11;;;;;;;9.85;7.78;;;9.80;96.00;;;;;;6066176;23;93124;-68
2022/04/15 07:00:39;;;;;;;11.07;8.00;;;9.90;96.10;;;;;;6041311;23;92540;-68
2022/04/15 07:03:06;;;;;;;12.98;8.20;;;10.00;96.00;;;;;;6066683;23;92507;-68
2022/04/15 07:05:33;;;;;;;8.40;7.55;;;10.00;95.90;;;;;;6066472;23;93206;-68
2022/04/15 07:08:04;;;;;;;11.23;8.23;;;10.10;95.70;;;;;;6040842;23;95757;-68
2022/04/15 07:10:31;;;;;;;11.85;9.05;;;10.10;95.80;;;;;;6040320;23;92338;-68
2022/04/15 07:12:58;;;;;;;13.95;9.00;;;10.10;95.80;;;;;;6040596;23;92494;-68
2022/04/15 07:15:26;;;;;;;13.32;9.23;;;10.10;95.70;;;;;;6038550;23;96572;-68
2022/04/15 07:17:53;;;;;;;14.30;10.18;;;10.10;95.70;;;;;;6040579;23;95374;-68
2022/04/15 07:20:20;;;;;;;13.75;9.63;;;10.10;95.60;;;;;;6065938;23;93285;-69
2022/04/15 07:22:47;;;;;;;13.00;10.45;;;10.00;95.80;;;;;;6016843;23;96176;-69
2022/04/15 07:25:19;;;;;;;16.08;10.85;;;10.10;95.90;;;;;;6065196;23;92311;-68
2022/04/15 07:27:46;;;;;;;17.75;10.38;;;10.10;96.10;;;;;;6039962;23;94042;-69
2022/04/15 07:30:12;;;;;;;18.98;11.60;;;10.20;95.60;;;;;;6065454;23;92297;-69
2022/04/15 07:32:39;;;;;;;16.92;12.32;;;10.20;95.40;;;;;;6040177;23;91719;-69
2022/04/15 07:35:07;;;;;;;15.27;11.88;;;10.30;95.40;;;;;;6039314;23;94080;-69
2022/04/15 07:37:34;;;;;;;18.20;11.48;;;10.30;95.20;;;;;;6039757;23;92529;-69
2022/04/15 07:40:01;;;;;;;15.60;11.07;;;10.40;95.20;;;;;;6064357;23;94717;-69
2022/04/15 07:42:28;;;;;;;15.52;11.48;;;10.40;95.00;;;;;;6015618;23;92423;-69
2022/04/15 07:44:55;;;;;;;16.40;11.20;;;10.40;94.90;;;;;;6040279;23;93249;-69
2022/04/15 07:47:23;;;;;;;18.63;11.40;;;10.50;94.80;;;;;;6065364;23;93070;-68
2022/04/15 07:50:04;;;;;;;14.95;12.15;;;10.60;94.80;;;;;;6065829;23;92922;-68
2022/04/15 07:52:33;;;;;;;16.63;12.20;;;10.60;94.50;;;;;;6065697;23;92809;-68
2022/04/15 07:55:00;;;;;;;12.77;9.07;;;10.60;94.40;;;;;;6064934;23;109561;-69
2022/04/15 07:57:29;;;;;;;11.85;9.95;;;10.60;94.00;;;;;;6066425;23;92972;-68
2022/04/15 07:59:57;;;;;;;15.60;9.07;;;10.60;94.10;;;;;;6066434;23;92415;-69
2022/04/15 08:02:24;;;;;;;13.95;9.55;;;10.60;94.00;;;;;;6040519;23;92901;-68
2022/04/15 08:04:51;;;;;;;16.75;10.00;;;10.60;94.00;;;;;;6064653;23;95654;-69
2022/04/15 08:07:18;;;;;;;15.60;10.55;;;10.60;94.00;;;;;;6065108;23;95303;-68
2022/04/15 08:09:45;;;;;;;20.02;10.80;;;10.60;94.10;;;;;;6039567;23;92444;-68
2022/04/15 08:12:12;;;;;;;11.27;8.65;;;10.60;94.20;;;;;;6039445;23;92554;-69
2022/04/15 08:14:39;;;;;;;11.10;8.50;;;10.50;94.00;;;;;;6040032;23;95812;-68
2022/04/15 08:17:06;;;;;;;10.65;7.13;;;10.50;94.10;;;;;;6066141;23;92766;-68
2022/04/15 08:19:35;;;;;;;11.77;6.53;;;10.60;93.90;;;;;;6040495;23;92674;-68
2022/04/15 08:22:09;;;;;;;8.50;6.57;;;10.60;93.70;;;;;;6064715;23;91795;-69
2022/04/15 08:24:42;;;;;;;13.20;7.30;;;10.70;93.40;;;;;;6066193;23;93200;-68
2022/04/15 08:27:10;;;;;;;6.43;5.83;;;10.80;93.30;;;;;;6066088;23;93025;-69
2022/04/15 08:29:38;;;;;;;11.70;7.97;;;10.90;92.80;;;;;;6064460;23;98147;-69
2022/04/15 08:32:09;;;;;;;13.60;8.68;;;11.00;92.80;;;;;;6040076;23;92443;-68
2022/04/15 08:34:37;;;;;;;12.02;8.02;;;11.20;92.70;;;;;;6040059;23;93310;-68
2022/04/15 08:37:04;;;;;;;9.63;6.63;;;11.30;92.30;;;;;;6040033;23;95566;-69
2022/04/15 08:39:31;;;;;;;10.50;7.40;;;11.50;92.00;;;;;;6016112;23;92367;-69
2022/04/15 08:41:59;;;;;;;9.32;7.18;;;11.50;91.80;;;;;;6040170;23;92740;-69
2022/04/15 08:44:26;;;;;;;7.97;6.60;;;11.60;91.90;;;;;;6065701;23;93269;-69
2022/04/15 08:46:53;;;;;;;11.27;6.93;;;11.70;91.60;;;;;;6066603;23;92943;-69
2022/04/15 08:49:22;;;;;;;13.77;7.57;;;11.70;91.30;;;;;;6040310;23;92380;-69
2022/04/15 08:51:50;;;;;;;10.75;6.95;;;11.80;91.50;;;;;;6065510;23;105336;-69
2022/04/15 08:54:18;;;;;;;10.38;7.43;;;12.00;91.30;;;;;;6064391;23;95772;-69
2022/04/15 08:56:46;;;;;;;8.95;7.30;;;12.20;91.20;;;;;;6040825;23;95390;-69
2022/04/15 08:59:14;;;;;;;7.95;5.93;;;12.40;90.70;;;;;;6040584;23;92424;-69
2022/04/15 09:01:43;;;;;;;8.23;5.88;;;12.50;90.20;;;;;;6039967;23;92587;-69
2022/04/15 09:04:11;;;;;;;6.32;5.70;;;12.60;89.80;;;;;;6065852;23;93100;-68
2022/04/15 09:06:42;;;;;;;10.88;7.00;;;12.50;88.80;;;;;;6040169;23;92831;-69
2022/04/15 09:09:14;;;;;;;10.40;7.25;;;12.50;89.70;;;;;;6066245;23;92307;-68
2022/04/15 09:11:44;;;;;;;9.35;7.60;;;12.50;90.00;;;;;;6066430;23;91893;-69
2022/04/15 09:14:13;;;;;;;9.38;6.00;;;12.70;90.20;;;;;;6040097;23;95803;-69
2022/04/15 09:16:48;;;;;;;9.75;7.53;;;12.70;89.20;;;;;;6039098;23;98737;-69
2022/04/15 09:19:17;;;;;;;11.13;6.95;;;12.80;89.30;;;;;;6015583;23;94918;-69
2022/04/15 09:21:53;;;;;;;10.80;8.10;;;12.80;88.60;;;;;;6065878;23;92746;-69
2022/04/15 09:24:31;;;;;;;14.00;7.70;;;12.90;89.40;;;;;;6065734;23;93441;-69
2022/04/15 09:27:05;;;;;;;7.88;6.70;;;13.00;88.50;;;;;;6065481;23;92973;-68
2022/04/15 09:29:34;;;;;;;8.77;6.50;;;13.00;87.90;;;;;;6040507;23;92377;-68
2022/04/15 09:32:09;;;;;;;9.25;7.18;;;13.00;87.90;;;;;;6040441;23;92490;-68
2022/04/15 09:34:59;;;;;;;11.35;6.93;;;13.30;87.20;;;;;;6040515;23;93085;-69
2022/04/15 09:37:30;;;;;;;8.52;6.00;;;13.60;86.20;;;;;;6041447;23;92987;-69
2022/04/15 09:40:08;;;;;;;7.70;5.57;;;13.60;84.80;;;;;;6067381;23;92420;-69
2022/04/15 09:42:36;;;;;;;11.18;7.00;;;13.70;84.40;;;;;;6066635;23;92993;-69
2022/04/15 09:45:14;;;;;;;7.22;5.40;;;13.70;84.90;;;;;;6038684;23;108836;-69
2022/04/15 09:47:42;;;;;;;6.93;4.97;;;13.70;83.70;;;;;;6066167;23;96035;-69
2022/04/15 09:50:22;;;;;;;9.70;5.63;;;13.60;83.60;;;;;;6041063;23;92863;-69
2022/04/15 09:52:51;;;;;;;10.77;6.80;;;13.70;84.30;;;;;;6065366;23;92463;-68
2022/04/15 09:55:20;;;;;;;7.85;6.35;;;13.70;84.20;;;;;;6066788;23;93353;-69
2022/04/15 09:57:51;;;;;;;9.65;6.88;;;13.60;84.70;;;;;;6066510;23;92836;-69
2022/04/15 10:00:19;;;;;;;9.65;6.30;;;13.60;84.40;;;;;;6067114;23;92432;-69
2022/04/15 10:02:49;;;;;;;9.43;5.82;;;13.60;84.50;;;;;;6067146;23;91723;-69
2022/04/15 10:05:20;;;;;;;9.30;6.28;;;13.70;84.30;;;;;;6066760;23;93336;-69
2022/04/15 10:07:48;;;;;;;9.95;6.78;;;13.50;84.50;;;;;;6040536;23;95616;-69
2022/04/15 10:10:15;;;;;;;7.43;5.82;;;13.50;84.70;;;;;;6065572;23;94777;-69
2022/04/15 10:12:43;;;;;;;10.45;6.43;;;13.50;84.80;;;;;;6041112;23;92555;-69
2022/04/15 10:15:10;;;;;;;7.43;5.78;;;13.50;84.70;;;;;;6040465;23;95611;-69
2022/04/15 10:17:39;;;;;;;9.00;6.20;;;13.50;84.10;;;;;;6066674;23;92379;-68
2022/04/15 10:20:09;;;;;;;10.82;6.60;;;13.50;84.40;;;;;;6065289;23;92787;-69
2022/04/15 10:22:39;;;;;;;8.30;7.28;;;13.50;84.00;;;;;;6066679;23;92377;-71
2022/04/15 10:25:07;;;;;;;10.98;6.15;;;13.50;84.40;;;;;;6040228;23;95768;-71
2022/04/15 10:27:34;;;;;;;7.68;5.85;;;13.50;84.00;;;;;;6067009;23;92885;-69
2022/04/15 10:30:06;;;;;;;8.65;5.20;;;13.50;83.90;;;;;;6066972;23;92367;-69
2022/04/15 10:32:55;;;;;;;7.22;5.97;;;13.60;84.10;;;;;;6066416;23;92418;-69
2022/04/15 10:35:30;;;;;;;7.70;5.68;;;13.60;84.00;;;;;;6039264;23;98134;-69
2022/04/15 10:37:58;;;;;;;7.63;6.25;;;13.60;84.20;;;;;;6040497;23;97037;-69
2022/04/15 10:40:29;;;;;;;7.05;6.20;;;13.60;84.20;;;;;;6066842;23;92445;-69
2022/04/15 10:43:05;;;;;;;8.07;6.45;;;13.60;84.20;;;;;;6066501;23;92385;-69
2022/04/15 10:45:37;;;;;;;8.57;7.68;;;13.50;83.70;;;;;;6066214;23;93150;-69
2022/04/15 10:48:04;;;;;;;11.43;7.38;;;13.40;84.40;;;;;;6066525;23;92771;-69
2022/04/15 10:50:33;;;;;;;7.43;6.75;;;13.10;85.80;;;;;;6066750;23;92309;-69
2022/04/15 10:53:18;;;;;;;10.82;7.70;;;13.00;86.60;;;;;;6067159;23;91670;-70
2022/04/15 10:55:52;;;;;;;11.13;8.02;;;13.00;87.20;;;;;;6040379;23;95682;-71
2022/04/15 10:58:21;;;;;;;8.25;7.00;;;12.90;87.50;;;;;;6040609;23;95717;-72
2022/04/15 11:01:17;;;;;;;9.52;7.32;;;12.80;87.50;;;;;;6065111;23;94757;-69
2022/04/15 11:03:53;;;;;;;10.02;6.90;;;12.90;86.90;;;;;;6066419;23;92432;-70
2022/04/15 11:06:28;;;;;;;11.10;7.65;;;12.80;87.10;;;;;;6040859;23;93061;-70
2022/04/15 11:09:15;;;;;;;10.23;6.05;;;12.80;87.70;;;;;;6040172;23;95609;-70
2022/04/15 11:11:45;;;;;;;8.82;7.10;;;12.80;87.70;;;;;;6066592;23;92330;-72
2022/04/15 11:14:16;;;;;;;10.23;7.07;;;12.60;88.40;;;;;;6040997;23;92464;-69
2022/04/15 11:16:48;;;;;;;9.45;7.00;;;12.60;88.30;;;;;;6040374;23;95774;-69
2022/04/15 11:19:23;;;;;;;7.95;6.97;;;12.60;88.50;;;;;;6041085;23;95458;-69
2022/04/15 11:21:53;;;;;;;9.70;6.30;;;12.60;88.60;;;;;;6040598;23;92522;-69
2022/04/15 11:24:32;;;;;;;11.25;7.05;;;12.60;88.10;;;;;;6066604;23;92512;-70
2022/04/15 11:27:03;;;;;;;10.48;7.75;;;12.70;88.00;;;;;;6064394;23;95646;-70
2022/04/15 11:29:32;;;;;;;9.23;6.78;;;12.60;88.00;;;;;;6016572;23;98024;-69
2022/04/15 11:32:05;;;;;;;9.05;6.53;;;12.70;88.70;;;;;;6066314;23;92450;-69
2022/04/15 11:34:33;;;;;;;7.15;6.45;;;12.70;88.10;;;;;;6040679;23;92427;-69
2022/04/15 11:37:07;;;;;;;9.90;5.97;;;12.70;88.00;;;;;;6040949;23;93716;-69
2022/04/15 11:39:35;;;;;;;;;;;12.80;87.40;;;;;;6066871;23;92929;-69
2022/04/15 11:42:14;;;;;;;7.28;5.78;;;12.70;87.80;;;;;;6067597;23;92291;-69
2022/04/15 11:44:42;;;;;;;5.60;4.97;;;12.70;87.40;;;;;;6041005;23;91728;-69
2022/04/15 11:47:16;;;;;;;8.23;6.40;;;12.60;87.80;;;;;;6040599;23;93280;-69
2022/04/15 11:49:44;;;;;;;;;;;12.60;88.00;;;;;;6040663;23;95376;-69
2022/04/15 11:52:23;;;;;;;9.23;6.40;;;12.50;88.20;;;;;;6040316;23;99027;-69
2022/04/15 11:54:50;;;;;;;9.55;6.60;;;12.60;89.10;;;;;;6040256;23;92474;-69
2022/04/15 11:57:18;;;;;;;6.80;6.07;;;12.70;88.80;;;;;;6065602;23;106521;-69
2022/04/15 11:59:47;;;;;;;8.48;6.32;;;12.70;88.40;;;;;;6065910;23;92960;-69
2022/04/15 12:02:18;;;;;;;8.10;6.25;;;12.70;88.00;;;;;;6040226;23;92450;-69
2022/04/15 12:05:11;;;;;;;9.52;5.47;;;12.60;88.00;;;;;;6066608;23;93320;-70
2022/04/15 12:07:38;;;;;;;10.25;6.65;;;12.60;88.10;;;;;;6038912;23;95627;-70
2022/04/15 12:10:05;;;;;;;8.73;6.50;;;12.60;89.20;;;;;;6040396;23;95755;-69
2022/04/15 12:12:36;;;;;;;11.25;6.80;;;12.50;89.20;;;;;;6066882;23;92805;-69
2022/04/15 12:15:03;;;;;;;10.93;7.25;;;12.50;89.00;;;;;;6066092;23;92437;-69
2022/04/15 12:17:31;;;;;;;8.98;6.72;;;12.60;89.30;;;;;;6038912;23;95653;-69
2022/04/15 12:20:02;;;;;;;9.73;7.63;;;12.50;89.60;;;;;;6065869;23;94284;-69
2022/04/15 12:22:29;;;;;;;11.38;7.85;;;12.50;89.30;;;;;;6065525;23;106999;-69
2022/04/15 12:25:17;;;;;;;10.23;7.40;;;12.50;89.60;;;;;;6015880;23;92416;-70
2022/04/15 12:27:45;;;;;;;11.82;7.60;;;12.60;89.20;;;;;;6040584;23;93166;-70
2022/04/15 12:30:14;;;;;;;9.18;7.88;;;12.50;89.20;;;;;;6065825;23;93000;-70
2022/04/15 12:32:42;;;;;;;9.80;7.85;;;12.50;89.10;;;;;;6040288;23;92370;-70
2022/04/15 12:35:11;;;;;;;8.75;6.53;;;12.50;89.20;;;;;;6040114;23;91710;-70
2022/04/15 12:37:50;;;;;;;10.10;7.60;;;12.50;89.00;;;;;;6066081;23;92931;-70
2022/04/15 12:40:19;;;;;;;8.70;6.53;;;12.50;88.80;;;;;;6039942;23;94148;-70
2022/04/15 12:42:49;;;;;;;7.68;6.93;;;12.40;88.30;;;;;;6038498;23;94836;-70
2022/04/15 12:45:21;;;;;;;8.68;7.38;;;12.40;88.90;;;;;;6065834;23;95997;-70
2022/04/15 12:48:17;;;;;;;7.28;6.43;;;12.60;89.10;;;;;;6066039;23;93028;-70
2022/04/15 12:50:46;;;;;;;9.07;7.13;;;12.50;87.70;;;;;;6044273;23;94945;-70
2022/04/15 12:53:17;;;;;;;9.65;7.30;;;12.50;88.30;;;;;;6039864;23;92399;-69
2022/04/15 12:55:45;;;;;;;10.20;6.97;;;12.60;88.50;;;;;;6066320;23;92767;-70